sensor_id;sensor_type;location;lat;lon;timestamp;pressure;altitude;pressure_sealevel;temperature;humidity
52719;BME280;38616;42.140;24.760;2022-09-24T00:00:47;99927.88;;;13.34;48.94
52719;BME280;38616;42.140;24.760;2022-09-24T00:03:20;99923.81;;;13.31;49.06
52719;BME280;38616;42.140;24.760;2022-09-24T00:05:46;99915.63;;;13.31;48.31
52719;BME280;38616;42.140;24.760;2022-09-24T00:08:12;99932.00;;;12.77;50.00
52719;BME280;38616;42.140;24.760;2022-09-24T00:10:41;99936.56;;;12.52;50.35
52719;BME280;38616;42.140;24.760;2022-09-24T00:13:08;99934.63;;;12.23;50.84
52719;BME280;38616;42.140;24.760;2022-09-24T00:15:38;99934.75;;;11.97;51.33
52719;BME280;38616;42.140;24.760;2022-09-24T00:18:03;99928.81;;;11.85;51.77
52719;BME280;38616;42.140;24.760;2022-09-24T00:20:30;99933.19;;;11.86;51.95
52719;BME280;38616;42.140;24.760;2022-09-24T00:22:56;99931.53;;;11.85;52.20
52719;BME280;38616;42.140;24.760;2022-09-24T00:25:21;99922.91;;;11.73;52.16
52719;BME280;38616;42.140;24.760;2022-09-24T00:28:05;99924.00;;;11.72;52.32
52719;BME280;38616;42.140;24.760;2022-09-24T00:30:30;99923.88;;;11.92;52.01
52719;BME280;38616;42.140;24.760;2022-09-24T00:32:55;99917.75;;;12.21;50.94
52719;BME280;38616;42.140;24.760;2022-09-24T00:35:21;99922.41;;;12.16;51.18
52719;BME280;38616;42.140;24.760;2022-09-24T00:37:47;99918.66;;;12.41;50.46
52719;BME280;38616;42.140;24.760;2022-09-24T00:40:13;99913.34;;;12.60;50.42
52719;BME280;38616;42.140;24.760;2022-09-24T00:42:39;99914.31;;;12.75;49.73
52719;BME280;38616;42.140;24.760;2022-09-24T00:45:07;99910.25;;;12.72;49.49
52719;BME280;38616;42.140;24.760;2022-09-24T00:47:42;99905.97;;;12.90;49.19
52719;BME280;38616;42.140;24.760;2022-09-24T00:50:18;99905.78;;;12.81;49.55
52719;BME280;38616;42.140;24.760;2022-09-24T00:52:47;99905.28;;;12.79;49.69
52719;BME280;38616;42.140;24.760;2022-09-24T00:55:14;99906.94;;;12.75;49.61
52719;BME280;38616;42.140;24.760;2022-09-24T00:57:40;99904.56;;;12.68;49.78
52719;BME280;38616;42.140;24.760;2022-09-24T01:00:06;99911.16;;;12.27;51.10
52719;BME280;38616;42.140;24.760;2022-09-24T01:02:33;99905.31;;;12.45;50.75
52719;BME280;38616;42.140;24.760;2022-09-24T01:04:59;99903.22;;;12.66;50.38
52719;BME280;38616;42.140;24.760;2022-09-24T01:07:24;99906.19;;;12.69;50.36
52719;BME280;38616;42.140;24.760;2022-09-24T01:09:49;99909.28;;;12.57;50.68
52719;BME280;38616;42.140;24.760;2022-09-24T01:12:24;99910.53;;;12.70;50.44
52719;BME280;38616;42.140;24.760;2022-09-24T01:17:36;99915.50;;;12.63;50.78
52719;BME280;38616;42.140;24.760;2022-09-24T01:25:06;99916.59;;;12.62;50.64
52719;BME280;38616;42.140;24.760;2022-09-24T01:30:21;99917.66;;;12.66;50.55
52719;BME280;38616;42.140;24.760;2022-09-24T01:32:50;99915.34;;;12.49;50.64
52719;BME280;38616;42.140;24.760;2022-09-24T01:35:19;99917.63;;;12.37;51.15
52719;BME280;38616;42.140;24.760;2022-09-24T01:37:50;99920.44;;;12.26;50.96
52719;BME280;38616;42.140;24.760;2022-09-24T01:40:17;99924.75;;;12.33;50.83
52719;BME280;38616;42.140;24.760;2022-09-24T01:42:44;99921.88;;;12.48;50.57
52719;BME280;38616;42.140;24.760;2022-09-24T01:45:10;99917.44;;;12.57;50.52
52719;BME280;38616;42.140;24.760;2022-09-24T01:47:37;99925.53;;;12.68;50.29
52719;BME280;38616;42.140;24.760;2022-09-24T01:50:03;99929.22;;;12.53;50.71
52719;BME280;38616;42.140;24.760;2022-09-24T01:52:30;99923.59;;;12.39;50.84
52719;BME280;38616;42.140;24.760;2022-09-24T01:54:58;99925.91;;;12.21;51.39
52719;BME280;38616;42.140;24.760;2022-09-24T01:57:33;99925.19;;;12.05;51.82
52719;BME280;38616;42.140;24.760;2022-09-24T02:00:07;99934.63;;;11.68;52.36
52719;BME280;38616;42.140;24.760;2022-09-24T02:02:40;99940.84;;;11.74;52.36
52719;BME280;38616;42.140;24.760;2022-09-24T02:05:15;99935.06;;;11.30;53.39
52719;BME280;38616;42.140;24.760;2022-09-24T02:07:49;99941.63;;;11.14;53.66
52719;BME280;38616;42.140;24.760;2022-09-24T02:10:17;99935.69;;;10.86;54.25
52719;BME280;38616;42.140;24.760;2022-09-24T02:12:45;99941.13;;;10.81;54.29
52719;BME280;38616;42.140;24.760;2022-09-24T02:15:31;99941.13;;;10.86;54.59
52719;BME280;38616;42.140;24.760;2022-09-24T02:17:58;99939.78;;;10.93;54.27
52719;BME280;38616;42.140;24.760;2022-09-24T02:20:25;99940.56;;;10.94;53.82
52719;BME280;38616;42.140;24.760;2022-09-24T02:22:53;99943.28;;;10.84;54.24
52719;BME280;38616;42.140;24.760;2022-09-24T02:25:21;99950.66;;;10.88;54.00
52719;BME280;38616;42.140;24.760;2022-09-24T02:27:49;99951.09;;;11.21;53.42
52719;BME280;38616;42.140;24.760;2022-09-24T02:30:15;99958.91;;;11.49;52.68
52719;BME280;38616;42.140;24.760;2022-09-24T02:32:41;99957.72;;;11.76;52.00
52719;BME280;38616;42.140;24.760;2022-09-24T02:35:08;99961.28;;;11.76;51.75
52719;BME280;38616;42.140;24.760;2022-09-24T02:37:41;99957.34;;;12.03;51.23
52719;BME280;38616;42.140;24.760;2022-09-24T02:40:08;99949.72;;;12.00;51.26
52719;BME280;38616;42.140;24.760;2022-09-24T02:42:34;99958.78;;;11.85;51.32
52719;BME280;38616;42.140;24.760;2022-09-24T02:44:59;99952.59;;;11.69;51.63
52719;BME280;38616;42.140;24.760;2022-09-24T02:47:26;99954.50;;;11.68;51.72
52719;BME280;38616;42.140;24.760;2022-09-24T02:49:51;99947.66;;;11.76;51.78
52719;BME280;38616;42.140;24.760;2022-09-24T02:52:17;99954.41;;;11.84;51.86
52719;BME280;38616;42.140;24.760;2022-09-24T02:54:45;99948.94;;;11.89;51.62
52719;BME280;38616;42.140;24.760;2022-09-24T02:57:10;99954.94;;;11.86;51.77
52719;BME280;38616;42.140;24.760;2022-09-24T02:59:36;99962.03;;;11.87;51.73
52719;BME280;38616;42.140;24.760;2022-09-24T03:02:01;99973.75;;;11.88;51.58
52719;BME280;38616;42.140;24.760;2022-09-24T03:04:26;99969.84;;;11.99;51.80
52719;BME280;38616;42.140;24.760;2022-09-24T03:06:53;99974.75;;;11.97;51.64
52719;BME280;38616;42.140;24.760;2022-09-24T03:09:18;99980.00;;;11.88;51.56
52719;BME280;38616;42.140;24.760;2022-09-24T03:11:43;99984.69;;;11.77;51.72
52719;BME280;38616;42.140;24.760;2022-09-24T03:14:08;99983.28;;;11.80;51.54
52719;BME280;38616;42.140;24.760;2022-09-24T03:16:34;99986.59;;;11.66;51.27
52719;BME280;38616;42.140;24.760;2022-09-24T03:18:59;99989.44;;;11.35;52.19
52719;BME280;38616;42.140;24.760;2022-09-24T03:21:24;99989.41;;;11.46;51.92
52719;BME280;38616;42.140;24.760;2022-09-24T03:23:50;99993.53;;;11.12;52.89
52719;BME280;38616;42.140;24.760;2022-09-24T03:26:15;99978.22;;;11.52;51.74
52719;BME280;38616;42.140;24.760;2022-09-24T03:28:41;99985.22;;;11.79;51.26
52719;BME280;38616;42.140;24.760;2022-09-24T03:31:07;99988.47;;;11.81;51.16
52719;BME280;38616;42.140;24.760;2022-09-24T03:36:02;99993.06;;;11.86;51.37
52719;BME280;38616;42.140;24.760;2022-09-24T03:38:28;99987.09;;;11.84;51.87
52719;BME280;38616;42.140;24.760;2022-09-24T03:40:54;99992.50;;;11.89;51.96
52719;BME280;38616;42.140;24.760;2022-09-24T03:43:20;99991.19;;;11.81;51.63
52719;BME280;38616;42.140;24.760;2022-09-24T03:45:45;99992.81;;;11.82;51.69
52719;BME280;38616;42.140;24.760;2022-09-24T03:48:11;99990.53;;;12.05;50.99
52719;BME280;38616;42.140;24.760;2022-09-24T03:50:36;100006.84;;;12.10;50.92
52719;BME280;38616;42.140;24.760;2022-09-24T03:53:02;100007.44;;;11.97;51.15
52719;BME280;38616;42.140;24.760;2022-09-24T03:55:27;100012.63;;;11.93;51.47
52719;BME280;38616;42.140;24.760;2022-09-24T03:57:52;100019.75;;;11.79;51.57
52719;BME280;38616;42.140;24.760;2022-09-24T04:00:18;100023.03;;;11.81;51.59
52719;BME280;38616;42.140;24.760;2022-09-24T04:02:43;100029.84;;;11.78;51.55
52719;BME280;38616;42.140;24.760;2022-09-24T04:05:08;100023.03;;;11.76;51.67
52719;BME280;38616;42.140;24.760;2022-09-24T04:07:34;100023.06;;;11.71;51.79
52719;BME280;38616;42.140;24.760;2022-09-24T04:09:59;100029.06;;;11.67;51.96
52719;BME280;38616;42.140;24.760;2022-09-24T04:12:24;100030.69;;;11.68;52.21
52719;BME280;38616;42.140;24.760;2022-09-24T04:14:50;100036.09;;;11.79;51.65
52719;BME280;38616;42.140;24.760;2022-09-24T04:17:15;100038.84;;;11.74;52.03
52719;BME280;38616;42.140;24.760;2022-09-24T04:19:41;100036.63;;;11.81;51.56
52719;BME280;38616;42.140;24.760;2022-09-24T04:22:07;100040.50;;;11.64;51.82
52719;BME280;38616;42.140;24.760;2022-09-24T04:24:32;100039.94;;;11.67;51.64
52719;BME280;38616;42.140;24.760;2022-09-24T04:26:58;100042.09;;;11.81;50.96
52719;BME280;38616;42.140;24.760;2022-09-24T04:29:23;100037.69;;;11.90;51.13
52719;BME280;38616;42.140;24.760;2022-09-24T04:31:48;100050.22;;;11.86;51.03
52719;BME280;38616;42.140;24.760;2022-09-24T04:34:14;100050.63;;;11.48;51.71
52719;BME280;38616;42.140;24.760;2022-09-24T04:36:39;100051.38;;;11.59;51.69
52719;BME280;38616;42.140;24.760;2022-09-24T04:39:04;100049.75;;;11.68;51.22
52719;BME280;38616;42.140;24.760;2022-09-24T04:41:30;100053.31;;;11.64;51.70
52719;BME280;38616;42.140;24.760;2022-09-24T04:43:56;100053.03;;;11.55;51.32
52719;BME280;38616;42.140;24.760;2022-09-24T04:46:21;100052.75;;;11.67;51.07
52719;BME280;38616;42.140;24.760;2022-09-24T04:48:47;100050.81;;;11.78;50.53
52719;BME280;38616;42.140;24.760;2022-09-24T04:51:13;100054.06;;;11.80;50.90
52719;BME280;38616;42.140;24.760;2022-09-24T04:53:38;100058.44;;;11.65;50.94
52719;BME280;38616;42.140;24.760;2022-09-24T04:56:04;100049.28;;;11.46;51.31
52719;BME280;38616;42.140;24.760;2022-09-24T04:58:29;100055.47;;;11.62;50.64
52719;BME280;38616;42.140;24.760;2022-09-24T05:00:54;100061.09;;;11.96;50.16
52719;BME280;38616;42.140;24.760;2022-09-24T05:03:20;100056.09;;;12.24;50.03
52719;BME280;38616;42.140;24.760;2022-09-24T05:05:45;100057.16;;;12.29;49.53
52719;BME280;38616;42.140;24.760;2022-09-24T05:08:11;100059.19;;;12.52;48.95
52719;BME280;38616;42.140;24.760;2022-09-24T05:10:37;100055.34;;;12.59;48.63
52719;BME280;38616;42.140;24.760;2022-09-24T05:13:02;100060.75;;;12.64;48.63
52719;BME280;38616;42.140;24.760;2022-09-24T05:15:27;100062.34;;;12.70;48.36
52719;BME280;38616;42.140;24.760;2022-09-24T05:17:53;100064.59;;;12.07;48.68
52719;BME280;38616;42.140;24.760;2022-09-24T05:20:18;100063.81;;;11.91;49.12
52719;BME280;38616;42.140;24.760;2022-09-24T05:22:44;100064.41;;;11.73;49.69
52719;BME280;38616;42.140;24.760;2022-09-24T05:25:10;100070.44;;;11.64;50.02
52719;BME280;38616;42.140;24.760;2022-09-24T05:27:36;100071.00;;;11.56;50.75
52719;BME280;38616;42.140;24.760;2022-09-24T05:30:01;100068.78;;;11.68;50.31
52719;BME280;38616;42.140;24.760;2022-09-24T05:32:26;100069.91;;;11.52;50.48
52719;BME280;38616;42.140;24.760;2022-09-24T05:34:52;100063.13;;;11.55;50.61
52719;BME280;38616;42.140;24.760;2022-09-24T05:37:18;100064.19;;;11.59;50.67
52719;BME280;38616;42.140;24.760;2022-09-24T05:39:43;100060.84;;;11.88;49.66
52719;BME280;38616;42.140;24.760;2022-09-24T05:42:11;100053.09;;;12.26;49.50
52719;BME280;38616;42.140;24.760;2022-09-24T05:44:40;100060.59;;;12.50;48.68
52719;BME280;38616;42.140;24.760;2022-09-24T05:47:07;100058.16;;;12.43;49.19
52719;BME280;38616;42.140;24.760;2022-09-24T05:49:33;100071.22;;;12.46;49.02
52719;BME280;38616;42.140;24.760;2022-09-24T05:51:59;100071.50;;;12.90;48.17
52719;BME280;38616;42.140;24.760;2022-09-24T05:54:24;100062.06;;;13.11;47.88
52719;BME280;38616;42.140;24.760;2022-09-24T05:56:49;100069.59;;;13.25;47.55
52719;BME280;38616;42.140;24.760;2022-09-24T05:59:15;100064.31;;;13.34;47.27
52719;BME280;38616;42.140;24.760;2022-09-24T06:01:40;100075.69;;;13.46;47.44
52719;BME280;38616;42.140;24.760;2022-09-24T06:04:05;100071.13;;;13.66;47.09
52719;BME280;38616;42.140;24.760;2022-09-24T06:06:31;100071.44;;;13.59;46.92
52719;BME280;38616;42.140;24.760;2022-09-24T06:08:56;100074.19;;;13.83;47.61
52719;BME280;38616;42.140;24.760;2022-09-24T06:11:21;100076.28;;;13.67;47.00
52719;BME280;38616;42.140;24.760;2022-09-24T06:13:50;100074.78;;;13.80;46.56
52719;BME280;38616;42.140;24.760;2022-09-24T06:16:15;100070.94;;;13.81;46.74
52719;BME280;38616;42.140;24.760;2022-09-24T06:18:41;100073.28;;;13.93;47.04
52719;BME280;38616;42.140;24.760;2022-09-24T06:21:08;100067.47;;;14.19;46.64
52719;BME280;38616;42.140;24.760;2022-09-24T06:23:34;100070.31;;;14.52;45.72
52719;BME280;38616;42.140;24.760;2022-09-24T06:26:00;100075.72;;;14.14;45.06
52719;BME280;38616;42.140;24.760;2022-09-24T06:28:25;100072.41;;;14.17;45.80
52719;BME280;38616;42.140;24.760;2022-09-24T06:30:51;100070.56;;;14.12;45.32
52719;BME280;38616;42.140;24.760;2022-09-24T06:33:17;100072.63;;;14.01;44.55
52719;BME280;38616;42.140;24.760;2022-09-24T06:35:44;100078.59;;;14.28;44.42
52719;BME280;38616;42.140;24.760;2022-09-24T06:38:10;100079.91;;;14.30;43.94
52719;BME280;38616;42.140;24.760;2022-09-24T06:40:35;100076.16;;;14.65;43.28
52719;BME280;38616;42.140;24.760;2022-09-24T06:43:01;100086.00;;;14.66;43.29
52719;BME280;38616;42.140;24.760;2022-09-24T06:45:26;100078.22;;;14.34;44.26
52719;BME280;38616;42.140;24.760;2022-09-24T06:50:17;100094.41;;;13.82;43.37
52719;BME280;38616;42.140;24.760;2022-09-24T06:52:42;100095.03;;;13.74;43.72
52719;BME280;38616;42.140;24.760;2022-09-24T06:55:08;100097.84;;;13.93;43.32
52719;BME280;38616;42.140;24.760;2022-09-24T06:57:33;100088.50;;;13.99;43.13
52719;BME280;38616;42.140;24.760;2022-09-24T06:59:58;100092.53;;;14.26;42.62
52719;BME280;38616;42.140;24.760;2022-09-24T07:02:23;100087.59;;;14.28;42.58
52719;BME280;38616;42.140;24.760;2022-09-24T07:04:49;100084.06;;;14.47;42.59
52719;BME280;38616;42.140;24.760;2022-09-24T07:07:14;100083.34;;;14.60;41.53
52719;BME280;38616;42.140;24.760;2022-09-24T07:09:55;100088.69;;;14.71;41.79
52719;BME280;38616;42.140;24.760;2022-09-24T07:12:21;100085.72;;;14.86;41.08
52719;BME280;38616;42.140;24.760;2022-09-24T07:14:47;100092.34;;;14.99;40.68
52719;BME280;38616;42.140;24.760;2022-09-24T07:17:12;100079.88;;;15.26;40.55
52719;BME280;38616;42.140;24.760;2022-09-24T07:19:37;100084.34;;;15.22;40.69
52719;BME280;38616;42.140;24.760;2022-09-24T07:22:03;100084.34;;;15.36;40.67
52719;BME280;38616;42.140;24.760;2022-09-24T07:24:28;100090.44;;;15.47;40.53
52719;BME280;38616;42.140;24.760;2022-09-24T07:26:53;100082.56;;;15.59;39.81
52719;BME280;38616;42.140;24.760;2022-09-24T07:29:19;100079.03;;;15.73;39.60
52719;BME280;38616;42.140;24.760;2022-09-24T07:31:44;100084.13;;;15.79;39.76
52719;BME280;38616;42.140;24.760;2022-09-24T07:34:09;100081.22;;;16.04;39.44
52719;BME280;38616;42.140;24.760;2022-09-24T07:36:35;100075.72;;;16.04;39.62
52719;BME280;38616;42.140;24.760;2022-09-24T07:39:00;100082.41;;;16.25;39.58
52719;BME280;38616;42.140;24.760;2022-09-24T07:41:25;100070.91;;;16.37;38.82
52719;BME280;38616;42.140;24.760;2022-09-24T07:43:51;100067.22;;;16.56;38.66
52719;BME280;38616;42.140;24.760;2022-09-24T07:46:17;100071.97;;;16.64;38.43
52719;BME280;38616;42.140;24.760;2022-09-24T07:48:43;100072.94;;;16.46;38.73
52719;BME280;38616;42.140;24.760;2022-09-24T07:51:09;100071.66;;;16.01;38.31
52719;BME280;38616;42.140;24.760;2022-09-24T07:53:35;100071.44;;;16.12;38.77
52719;BME280;38616;42.140;24.760;2022-09-24T07:56:00;100064.66;;;16.09;38.64
52719;BME280;38616;42.140;24.760;2022-09-24T07:58:26;100068.28;;;16.32;38.32
52719;BME280;38616;42.140;24.760;2022-09-24T08:00:51;100068.78;;;16.34;38.22
52719;BME280;38616;42.140;24.760;2022-09-24T08:03:16;100056.78;;;16.44;37.63
52719;BME280;38616;42.140;24.760;2022-09-24T08:05:42;100064.41;;;16.70;36.98
52719;BME280;38616;42.140;24.760;2022-09-24T08:08:09;100059.06;;;16.88;37.10
52719;BME280;38616;42.140;24.760;2022-09-24T08:10:34;100059.28;;;16.54;37.29
52719;BME280;38616;42.140;24.760;2022-09-24T08:13:00;100060.78;;;16.61;36.82
52719;BME280;38616;42.140;24.760;2022-09-24T08:15:26;100061.34;;;16.49;36.77
52719;BME280;38616;42.140;24.760;2022-09-24T08:17:51;100060.25;;;16.36;36.14
52719;BME280;38616;42.140;24.760;2022-09-24T08:20:17;100044.06;;;16.48;35.92
52719;BME280;38616;42.140;24.760;2022-09-24T08:22:42;100043.91;;;16.90;36.13
52719;BME280;38616;42.140;24.760;2022-09-24T08:25:08;100037.69;;;17.21;34.37
52719;BME280;38616;42.140;24.760;2022-09-24T08:27:33;100039.41;;;17.08;34.25
52719;BME280;38616;42.140;24.760;2022-09-24T08:30:10;100044.16;;;17.25;33.93
52719;BME280;38616;42.140;24.760;2022-09-24T08:32:35;100036.66;;;17.40;33.26
52719;BME280;38616;42.140;24.760;2022-09-24T08:35:00;100030.63;;;17.61;33.72
52719;BME280;38616;42.140;24.760;2022-09-24T08:37:26;100033.50;;;17.55;32.87
52719;BME280;38616;42.140;24.760;2022-09-24T08:39:51;100035.16;;;17.34;32.31
52719;BME280;38616;42.140;24.760;2022-09-24T08:42:28;100028.41;;;17.40;33.13
52719;BME280;38616;42.140;24.760;2022-09-24T08:44:56;100018.50;;;17.62;33.54
52719;BME280;38616;42.140;24.760;2022-09-24T08:50:18;100022.69;;;17.27;32.08
52719;BME280;38616;42.140;24.760;2022-09-24T08:52:50;100010.56;;;17.60;32.41
52719;BME280;38616;42.140;24.760;2022-09-24T08:55:23;100018.72;;;17.42;32.16
52719;BME280;38616;42.140;24.760;2022-09-24T08:57:57;100018.81;;;17.69;31.85
52719;BME280;38616;42.140;24.760;2022-09-24T09:00:23;100020.28;;;17.75;32.60
52719;BME280;38616;42.140;24.760;2022-09-24T09:02:54;100013.47;;;18.04;31.15
52719;BME280;38616;42.140;24.760;2022-09-24T09:05:26;100008.97;;;18.26;31.09
52719;BME280;38616;42.140;24.760;2022-09-24T09:10:40;100013.34;;;18.44;29.29
52719;BME280;38616;42.140;24.760;2022-09-24T09:15:46;100008.28;;;18.11;30.33
52719;BME280;38616;42.140;24.760;2022-09-24T09:18:21;100004.09;;;18.14;29.15
52719;BME280;38616;42.140;24.760;2022-09-24T09:20:48;100001.66;;;18.04;29.23
52719;BME280;38616;42.140;24.760;2022-09-24T09:24:14;100007.09;;;17.95;29.22
52719;BME280;38616;42.140;24.760;2022-09-24T09:26:10;100012.69;;;17.63;29.44
52719;BME280;38616;42.140;24.760;2022-09-24T09:28:35;99986.88;;;17.91;29.45
52719;BME280;38616;42.140;24.760;2022-09-24T09:41:21;99983.06;;;18.18;29.98
52719;BME280;38616;42.140;24.760;2022-09-24T09:43:59;99975.00;;;18.30;30.08
52719;BME280;38616;42.140;24.760;2022-09-24T09:46:27;99983.22;;;18.30;29.22
52719;BME280;38616;42.140;24.760;2022-09-24T09:48:57;99983.06;;;18.18;28.99
52719;BME280;38616;42.140;24.760;2022-09-24T09:51:24;99977.25;;;18.28;28.96
52719;BME280;38616;42.140;24.760;2022-09-24T09:53:57;99970.59;;;18.65;29.61
52719;BME280;38616;42.140;24.760;2022-09-24T09:56:40;99974.78;;;18.97;28.60
52719;BME280;38616;42.140;24.760;2022-09-24T10:01:34;99975.91;;;18.96;28.12
52719;BME280;38616;42.140;24.760;2022-09-24T10:04:00;99959.22;;;19.01;27.02
52719;BME280;38616;42.140;24.760;2022-09-24T10:06:30;99965.25;;;18.77;27.82
52719;BME280;38616;42.140;24.760;2022-09-24T10:11:31;99949.78;;;19.20;27.04
52719;BME280;38616;42.140;24.760;2022-09-24T10:14:02;99953.47;;;19.24;26.62
52719;BME280;38616;42.140;24.760;2022-09-24T10:16:28;99955.16;;;19.08;27.04
52719;BME280;38616;42.140;24.760;2022-09-24T10:18:53;99950.53;;;19.29;26.97
52719;BME280;38616;42.140;24.760;2022-09-24T10:23:50;99942.78;;;19.23;27.25
52719;BME280;38616;42.140;24.760;2022-09-24T10:26:15;99934.69;;;19.17;26.95
52719;BME280;38616;42.140;24.760;2022-09-24T10:28:45;99938.00;;;18.93;26.89
52719;BME280;38616;42.140;24.760;2022-09-24T10:31:30;99934.63;;;18.96;27.08
52719;BME280;38616;42.140;24.760;2022-09-24T10:33:58;99935.06;;;19.07;27.45
52719;BME280;38616;42.140;24.760;2022-09-24T10:36:26;99936.47;;;19.22;26.62
52719;BME280;38616;42.140;24.760;2022-09-24T10:41:33;99932.06;;;18.73;27.08
52719;BME280;38616;42.140;24.760;2022-09-24T10:44:07;99924.59;;;18.83;26.96
52719;BME280;38616;42.140;24.760;2022-09-24T10:46:41;99928.09;;;19.10;26.72
52719;BME280;38616;42.140;24.760;2022-09-24T10:51:56;99930.59;;;19.32;27.03
52719;BME280;38616;42.140;24.760;2022-09-24T10:54:35;99917.94;;;19.61;27.03
52719;BME280;38616;42.140;24.760;2022-09-24T10:57:09;99916.81;;;19.62;26.76
52719;BME280;38616;42.140;24.760;2022-09-24T10:59:59;99921.63;;;19.44;26.79
52719;BME280;38616;42.140;24.760;2022-09-24T11:05:20;99910.13;;;19.42;26.75
52719;BME280;38616;42.140;24.760;2022-09-24T11:10:51;99899.88;;;19.52;26.39
52719;BME280;38616;42.140;24.760;2022-09-24T11:19:09;99899.50;;;19.83;26.35
52719;BME280;38616;42.140;24.760;2022-09-24T11:27:26;99887.25;;;19.72;25.87
52719;BME280;38616;42.140;24.760;2022-09-24T11:29:29;99884.31;;;19.47;25.64
52719;BME280;38616;42.140;24.760;2022-09-24T11:34:45;99875.44;;;20.14;24.80
52719;BME280;38616;42.140;24.760;2022-09-24T11:37:21;99867.19;;;19.92;25.14
52719;BME280;38616;42.140;24.760;2022-09-24T11:39:54;99856.94;;;20.14;25.68
52719;BME280;38616;42.140;24.760;2022-09-24T11:42:32;99857.13;;;20.30;26.02
52719;BME280;38616;42.140;24.760;2022-09-24T11:50:02;99850.16;;;20.58;23.78
52719;BME280;38616;42.140;24.760;2022-09-24T11:52:32;99863.50;;;20.56;23.99
52719;BME280;38616;42.140;24.760;2022-09-24T11:55:00;99846.03;;;20.64;23.89
52719;BME280;38616;42.140;24.760;2022-09-24T11:57:32;99846.63;;;20.70;24.59
52719;BME280;38616;42.140;24.760;2022-09-24T12:00:05;99845.03;;;20.69;24.50
52719;BME280;38616;42.140;24.760;2022-09-24T12:07:28;99863.66;;;20.26;24.39
52719;BME280;38616;42.140;24.760;2022-09-24T12:09:58;99862.78;;;20.46;24.23
52719;BME280;38616;42.140;24.760;2022-09-24T12:12:42;99855.53;;;20.08;24.16
52719;BME280;38616;42.140;24.760;2022-09-24T12:15:13;99860.13;;;20.04;24.87
52719;BME280;38616;42.140;24.760;2022-09-24T12:20:18;99862.25;;;20.53;24.56
52719;BME280;38616;42.140;24.760;2022-09-24T12:22:48;99852.16;;;20.70;24.21
52719;BME280;38616;42.140;24.760;2022-09-24T12:25:14;99851.25;;;20.78;24.27
52719;BME280;38616;42.140;24.760;2022-09-24T12:27:40;99839.47;;;20.56;23.89
52719;BME280;38616;42.140;24.760;2022-09-24T12:38:22;99825.84;;;20.97;23.84
52719;BME280;38616;42.140;24.760;2022-09-24T12:43:27;99832.63;;;20.75;24.30
52719;BME280;38616;42.140;24.760;2022-09-24T12:45:59;99834.88;;;20.48;24.08
52719;BME280;38616;42.140;24.760;2022-09-24T12:48:26;99826.53;;;20.81;23.71
52719;BME280;38616;42.140;24.760;2022-09-24T12:50:58;99822.19;;;20.93;24.24
52719;BME280;38616;42.140;24.760;2022-09-24T12:53:27;99823.56;;;20.99;24.42
52719;BME280;38616;42.140;24.760;2022-09-24T12:55:58;99818.03;;;21.11;24.19
52719;BME280;38616;42.140;24.760;2022-09-24T13:01:05;99819.41;;;20.80;24.40
52719;BME280;38616;42.140;24.760;2022-09-24T13:03:32;99829.38;;;20.73;24.17
52719;BME280;38616;42.140;24.760;2022-09-24T13:05:58;99823.94;;;20.51;24.26
52719;BME280;38616;42.140;24.760;2022-09-24T13:08:25;99821.03;;;20.81;23.98
52719;BME280;38616;42.140;24.760;2022-09-24T13:11:01;99818.25;;;21.06;23.56
52719;BME280;38616;42.140;24.760;2022-09-24T13:13:30;99817.69;;;21.01;23.52
52719;BME280;38616;42.140;24.760;2022-09-24T13:16:00;99815.13;;;21.20;23.27
52719;BME280;38616;42.140;24.760;2022-09-24T13:18:26;99810.06;;;21.22;23.68
52719;BME280;38616;42.140;24.760;2022-09-24T13:20:59;99813.38;;;21.40;24.30
52719;BME280;38616;42.140;24.760;2022-09-24T13:28:29;99802.44;;;21.44;23.65
52719;BME280;38616;42.140;24.760;2022-09-24T13:33:27;99801.84;;;21.51;24.40
52719;BME280;38616;42.140;24.760;2022-09-24T13:36:14;99801.94;;;21.67;24.18
52719;BME280;38616;42.140;24.760;2022-09-24T13:41:39;99788.47;;;21.53;24.18
52719;BME280;38616;42.140;24.760;2022-09-24T13:44:17;99789.38;;;21.57;24.76
52719;BME280;38616;42.140;24.760;2022-09-24T13:46:45;99783.16;;;21.60;24.30
52719;BME280;38616;42.140;24.760;2022-09-24T13:49:17;99779.88;;;21.42;24.50
52719;BME280;38616;42.140;24.760;2022-09-24T13:51:44;99780.44;;;21.48;24.15
52719;BME280;38616;42.140;24.760;2022-09-24T13:59:35;99778.03;;;21.46;24.59
52719;BME280;38616;42.140;24.760;2022-09-24T14:02:01;99775.72;;;21.48;24.84
52719;BME280;38616;42.140;24.760;2022-09-24T14:04:27;99778.03;;;21.46;24.45
52719;BME280;38616;42.140;24.760;2022-09-24T14:06:53;99780.53;;;21.51;23.97
52719;BME280;38616;42.140;24.760;2022-09-24T14:11:51;99780.84;;;21.21;25.00
52719;BME280;38616;42.140;24.760;2022-09-24T14:14:17;99773.09;;;21.27;25.07
52719;BME280;38616;42.140;24.760;2022-09-24T14:16:43;99770.09;;;21.32;25.49
52719;BME280;38616;42.140;24.760;2022-09-24T14:19:12;99772.16;;;21.35;24.99
52719;BME280;38616;42.140;24.760;2022-09-24T14:21:39;99774.25;;;21.26;24.73
52719;BME280;38616;42.140;24.760;2022-09-24T14:24:28;99776.78;;;21.31;25.14
52719;BME280;38616;42.140;24.760;2022-09-24T14:26:59;99774.84;;;21.32;24.97
52719;BME280;38616;42.140;24.760;2022-09-24T14:29:43;99781.16;;;21.32;24.92
52719;BME280;38616;42.140;24.760;2022-09-24T14:32:23;99774.91;;;21.48;25.17
52719;BME280;38616;42.140;24.760;2022-09-24T14:34:53;99774.69;;;21.40;25.21
52719;BME280;38616;42.140;24.760;2022-09-24T14:37:20;99776.44;;;21.33;25.28
52719;BME280;38616;42.140;24.760;2022-09-24T14:39:47;99777.00;;;21.38;25.08